sensor_id;sensor_type;location;lat;lon;timestamp;pressure;altitude;pressure_sealevel;temperature;humidity
18813;BME280;9534;51.140;6.296;2023-04-02T00:00:23;99901.34;;;7.34;100.00
18813;BME280;9534;51.140;6.296;2023-04-02T00:04:27;99917.66;;;7.28;100.00
18813;BME280;9534;51.140;6.296;2023-04-02T00:08:36;99915.13;;;7.26;100.00
18813;BME280;9534;51.140;6.296;2023-04-02T00:12:58;99922.66;;;7.24;100.00
18813;BME280;9534;51.140;6.296;2023-04-02T00:17:04;99936.09;;;7.26;100.00
18813;BME280;9534;51.140;6.296;2023-04-02T00:21:11;99930.00;;;7.24;100.00
18813;BME280;9534;51.140;6.296;2023-04-02T00:25:16;99946.94;;;7.19;100.00
18813;BME280;9534;51.140;6.296;2023-04-02T00:29:20;99950.28;;;7.15;100.00
18813;BME280;9534;51.140;6.296;2023-04-02T00:33:26;99952.38;;;7.13;100.00
18813;BME280;9534;51.140;6.296;2023-04-02T00:37:32;99951.09;;;7.15;100.00
18813;BME280;9534;51.140;6.296;2023-04-02T00:41:41;99957.19;;;7.17;100.00
18813;BME280;9534;51.140;6.296;2023-04-02T00:45:54;99962.00;;;7.15;100.00
18813;BME280;9534;51.140;6.296;2023-04-02T00:50:02;99963.66;;;7.16;100.00
18813;BME280;9534;51.140;6.296;2023-04-02T00:54:10;99976.00;;;7.12;100.00
18813;BME280;9534;51.140;6.296;2023-04-02T00:58:29;99980.81;;;7.04;100.00
18813;BME280;9534;51.140;6.296;2023-04-02T01:02:35;99979.06;;;6.96;100.00
18813;BME280;9534;51.140;6.296;2023-04-02T01:06:41;99997.06;;;6.91;100.00
18813;BME280;9534;51.140;6.296;2023-04-02T01:10:58;99991.00;;;6.95;100.00
18813;BME280;9534;51.140;6.296;2023-04-02T01:15:10;100000.41;;;6.86;100.00
18813;BME280;9534;51.140;6.296;2023-04-02T01:19:47;100000.34;;;6.80;100.00
18813;BME280;9534;51.140;6.296;2023-04-02T01:24:03;100011.44;;;6.78;100.00
18813;BME280;9534;51.140;6.296;2023-04-02T01:28:11;100004.97;;;6.79;100.00
18813;BME280;9534;51.140;6.296;2023-04-02T01:32:23;100031.75;;;6.82;100.00
18813;BME280;9534;51.140;6.296;2023-04-02T01:36:35;100033.13;;;6.72;100.00
18813;BME280;9534;51.140;6.296;2023-04-02T01:40:44;100040.91;;;6.75;100.00
18813;BME280;9534;51.140;6.296;2023-04-02T01:44:51;100051.94;;;6.67;100.00
18813;BME280;9534;51.140;6.296;2023-04-02T01:48:59;100053.34;;;6.56;100.00
18813;BME280;9534;51.140;6.296;2023-04-02T01:53:07;100069.25;;;6.59;100.00
18813;BME280;9534;51.140;6.296;2023-04-02T01:57:12;100066.28;;;6.54;100.00
18813;BME280;9534;51.140;6.296;2023-04-02T02:01:18;100071.47;;;6.49;100.00
18813;BME280;9534;51.140;6.296;2023-04-02T02:05:26;100079.41;;;6.51;100.00
18813;BME280;9534;51.140;6.296;2023-04-02T02:09:33;100092.34;;;6.49;100.00
18813;BME280;9534;51.140;6.296;2023-04-02T02:13:37;100095.44;;;6.39;100.00
18813;BME280;9534;51.140;6.296;2023-04-02T02:17:43;100100.22;;;6.37;100.00
18813;BME280;9534;51.140;6.296;2023-04-02T02:21:49;100118.59;;;6.35;100.00
18813;BME280;9534;51.140;6.296;2023-04-02T02:25:53;100121.31;;;6.35;100.00
18813;BME280;9534;51.140;6.296;2023-04-02T02:30:00;100124.03;;;6.35;100.00
18813;BME280;9534;51.140;6.296;2023-04-02T02:34:11;100127.91;;;6.26;100.00
18813;BME280;9534;51.140;6.296;2023-04-02T02:38:26;100143.81;;;6.29;100.00
18813;BME280;9534;51.140;6.296;2023-04-02T02:42:38;100154.91;;;6.28;100.00
18813;BME280;9534;51.140;6.296;2023-04-02T02:46:48;100158.41;;;6.22;100.00
18813;BME280;9534;51.140;6.296;2023-04-02T02:50:54;100177.59;;;6.20;100.00
18813;BME280;9534;51.140;6.296;2023-04-02T02:55:02;100180.13;;;6.22;100.00
18813;BME280;9534;51.140;6.296;2023-04-02T02:59:19;100184.28;;;6.18;100.00
18813;BME280;9534;51.140;6.296;2023-04-02T03:03:26;100192.72;;;6.09;100.00
18813;BME280;9534;51.140;6.296;2023-04-02T03:07:34;100193.50;;;6.03;100.00
18813;BME280;9534;51.140;6.296;2023-04-02T03:11:44;100207.09;;;6.03;100.00
18813;BME280;9534;51.140;6.296;2023-04-02T03:15:58;100212.91;;;6.00;100.00
18813;BME280;9534;51.140;6.296;2023-04-02T03:20:11;100221.31;;;6.05;100.00
18813;BME280;9534;51.140;6.296;2023-04-02T03:24:23;100231.72;;;6.01;100.00
18813;BME280;9534;51.140;6.296;2023-04-02T03:28:36;100244.25;;;6.02;100.00
18813;BME280;9534;51.140;6.296;2023-04-02T03:32:42;100252.22;;;6.04;100.00
18813;BME280;9534;51.140;6.296;2023-04-02T03:36:51;100259.34;;;6.05;100.00
18813;BME280;9534;51.140;6.296;2023-04-02T03:41:02;100266.44;;;6.06;100.00
18813;BME280;9534;51.140;6.296;2023-04-02T03:45:14;100271.34;;;5.96;100.00
18813;BME280;9534;51.140;6.296;2023-04-02T03:49:26;100288.75;;;5.87;100.00
18813;BME280;9534;51.140;6.296;2023-04-02T03:53:31;100298.59;;;5.88;100.00
18813;BME280;9534;51.140;6.296;2023-04-02T03:57:39;100309.16;;;5.83;100.00
18813;BME280;9534;51.140;6.296;2023-04-02T04:01:52;100310.19;;;5.82;100.00
18813;BME280;9534;51.140;6.296;2023-04-02T04:05:59;100316.63;;;5.81;100.00
18813;BME280;9534;51.140;6.296;2023-04-02T04:10:05;100332.94;;;5.81;100.00
18813;BME280;9534;51.140;6.296;2023-04-02T04:14:15;100347.16;;;5.83;100.00
18813;BME280;9534;51.140;6.296;2023-04-02T04:18:28;100345.47;;;5.82;100.00
18813;BME280;9534;51.140;6.296;2023-04-02T04:22:40;100348.94;;;5.76;100.00
18813;BME280;9534;51.140;6.296;2023-04-02T04:26:52;100371.03;;;5.87;100.00
18813;BME280;9534;51.140;6.296;2023-04-02T04:31:00;100365.88;;;5.78;100.00
18813;BME280;9534;51.140;6.296;2023-04-02T04:35:20;100386.38;;;5.66;100.00
18813;BME280;9534;51.140;6.296;2023-04-02T04:39:32;100384.00;;;5.63;100.00
18813;BME280;9534;51.140;6.296;2023-04-02T04:43:44;100386.06;;;5.61;100.00
18813;BME280;9534;51.140;6.296;2023-04-02T04:47:53;100398.63;;;5.62;100.00
18813;BME280;9534;51.140;6.296;2023-04-02T04:52:08;100404.78;;;5.56;100.00
18813;BME280;9534;51.140;6.296;2023-04-02T04:56:22;100403.38;;;5.60;100.00
18813;BME280;9534;51.140;6.296;2023-04-02T05:00:39;100422.84;;;5.63;100.00
18813;BME280;9534;51.140;6.296;2023-04-02T05:04:48;100433.91;;;5.62;100.00
18813;BME280;9534;51.140;6.296;2023-04-02T05:08:57;100448.88;;;5.58;100.00
18813;BME280;9534;51.140;6.296;2023-04-02T05:13:08;100455.97;;;5.59;100.00
18813;BME280;9534;51.140;6.296;2023-04-02T05:17:17;100480.41;;;5.59;100.00
18813;BME280;9534;51.140;6.296;2023-04-02T05:21:26;100475.72;;;5.53;100.00
18813;BME280;9534;51.140;6.296;2023-04-02T05:25:50;100495.47;;;5.39;100.00
18813;BME280;9534;51.140;6.296;2023-04-02T05:30:27;100509.47;;;5.28;100.00
18813;BME280;9534;51.140;6.296;2023-04-02T05:34:37;100519.13;;;5.30;100.00
18813;BME280;9534;51.140;6.296;2023-04-02T05:38:44;100527.78;;;5.26;100.00
18813;BME280;9534;51.140;6.296;2023-04-02T05:42:55;100533.56;;;5.23;100.00
18813;BME280;9534;51.140;6.296;2023-04-02T05:47:03;100542.72;;;5.22;100.00
18813;BME280;9534;51.140;6.296;2023-04-02T05:51:13;100544.41;;;5.23;100.00
18813;BME280;9534;51.140;6.296;2023-04-02T05:55:34;100558.66;;;5.25;100.00
18813;BME280;9534;51.140;6.296;2023-04-02T05:59:42;100569.84;;;5.22;100.00
18813;BME280;9534;51.140;6.296;2023-04-02T06:03:54;100568.16;;;5.21;100.00
18813;BME280;9534;51.140;6.296;2023-04-02T06:08:09;100572.63;;;5.14;100.00
18813;BME280;9534;51.140;6.296;2023-04-02T06:12:23;100588.56;;;5.17;100.00
18813;BME280;9534;51.140;6.296;2023-04-02T06:16:29;100599.94;;;5.04;100.00
18813;BME280;9534;51.140;6.296;2023-04-02T06:20:36;100618.28;;;4.94;100.00
18813;BME280;9534;51.140;6.296;2023-04-02T06:24:40;100627.28;;;4.95;100.00
18813;BME280;9534;51.140;6.296;2023-04-02T06:28:45;100635.22;;;4.96;100.00
18813;BME280;9534;51.140;6.296;2023-04-02T06:32:53;100638.13;;;4.95;100.00
18813;BME280;9534;51.140;6.296;2023-04-02T06:36:58;100642.88;;;4.93;100.00
18813;BME280;9534;51.140;6.296;2023-04-02T06:41:09;100650.16;;;4.92;100.00
18813;BME280;9534;51.140;6.296;2023-04-02T06:45:37;100654.75;;;4.92;100.00
18813;BME280;9534;51.140;6.296;2023-04-02T06:50:15;100668.00;;;4.79;100.00
18813;BME280;9534;51.140;6.296;2023-04-02T06:54:22;100677.47;;;4.91;100.00
18813;BME280;9534;51.140;6.296;2023-04-02T06:58:30;100688.31;;;4.83;100.00
18813;BME280;9534;51.140;6.296;2023-04-02T07:02:36;100697.81;;;4.79;100.00
18813;BME280;9534;51.140;6.296;2023-04-02T07:06:46;100705.41;;;4.84;100.00
18813;BME280;9534;51.140;6.296;2023-04-02T07:10:50;100716.44;;;4.90;100.00
18813;BME280;9534;51.140;6.296;2023-04-02T07:14:53;100736.75;;;5.02;100.00
18813;BME280;9534;51.140;6.296;2023-04-02T07:18:58;100744.91;;;4.94;100.00
18813;BME280;9534;51.140;6.296;2023-04-02T07:23:06;100752.34;;;4.92;100.00
18813;BME280;9534;51.140;6.296;2023-04-02T07:27:10;100764.91;;;4.85;100.00
18813;BME280;9534;51.140;6.296;2023-04-02T07:31:16;100759.97;;;4.81;100.00
18813;BME280;9534;51.140;6.296;2023-04-02T07:35:19;100770.31;;;4.93;100.00
18813;BME280;9534;51.140;6.296;2023-04-02T07:39:24;100776.44;;;4.87;100.00
18813;BME280;9534;51.140;6.296;2023-04-02T07:43:28;100780.81;;;4.96;100.00
18813;BME280;9534;51.140;6.296;2023-04-02T07:47:32;100786.25;;;5.04;100.00
18813;BME280;9534;51.140;6.296;2023-04-02T07:51:35;100794.72;;;4.93;100.00
18813;BME280;9534;51.140;6.296;2023-04-02T07:55:40;100787.94;;;4.81;100.00
18813;BME280;9534;51.140;6.296;2023-04-02T07:59:43;100796.22;;;4.88;100.00
18813;BME280;9534;51.140;6.296;2023-04-02T08:03:47;100807.75;;;4.82;100.00
18813;BME280;9534;51.140;6.296;2023-04-02T08:07:52;100806.59;;;4.92;100.00
18813;BME280;9534;51.140;6.296;2023-04-02T08:11:58;100820.63;;;4.88;100.00
18813;BME280;9534;51.140;6.296;2023-04-02T08:16:02;100817.44;;;5.00;100.00
18813;BME280;9534;51.140;6.296;2023-04-02T08:20:08;100823.53;;;5.10;100.00
18813;BME280;9534;51.140;6.296;2023-04-02T08:24:12;100833.34;;;5.19;100.00
18813;BME280;9534;51.140;6.296;2023-04-02T08:28:17;100834.38;;;5.02;100.00
18813;BME280;9534;51.140;6.296;2023-04-02T08:32:20;100831.47;;;4.95;100.00
18813;BME280;9534;51.140;6.296;2023-04-02T08:36:27;100840.16;;;4.99;100.00
18813;BME280;9534;51.140;6.296;2023-04-02T08:40:35;100845.91;;;5.12;100.00
18813;BME280;9534;51.140;6.296;2023-04-02T08:44:47;100850.81;;;5.08;100.00
18813;BME280;9534;51.140;6.296;2023-04-02T08:48:56;100867.06;;;5.24;100.00
18813;BME280;9534;51.140;6.296;2023-04-02T08:53:05;100868.25;;;5.22;100.00
18813;BME280;9534;51.140;6.296;2023-04-02T08:57:17;100888.44;;;5.11;100.00
18813;BME280;9534;51.140;6.296;2023-04-02T09:01:34;100892.84;;;5.20;100.00
18813;BME280;9534;51.140;6.296;2023-04-02T09:05:41;100895.03;;;5.33;100.00
18813;BME280;9534;51.140;6.296;2023-04-02T09:09:46;100901.81;;;5.29;100.00
18813;BME280;9534;51.140;6.296;2023-04-02T09:13:54;100903.84;;;5.35;100.00
18813;BME280;9534;51.140;6.296;2023-04-02T09:18:09;100912.00;;;5.35;100.00
18813;BME280;9534;51.140;6.296;2023-04-02T09:22:18;100918.28;;;5.51;100.00
18813;BME280;9534;51.140;6.296;2023-04-02T09:26:25;100927.59;;;5.89;100.00
18813;BME280;9534;51.140;6.296;2023-04-02T09:30:39;100937.09;;;5.93;100.00
18813;BME280;9534;51.140;6.296;2023-04-02T09:34:46;100941.16;;;5.65;100.00
18813;BME280;9534;51.140;6.296;2023-04-02T09:38:57;100954.72;;;5.81;100.00
18813;BME280;9534;51.140;6.296;2023-04-02T09:43:07;100944.03;;;5.63;100.00
18813;BME280;9534;51.140;6.296;2023-04-02T09:47:23;100955.75;;;5.80;100.00
18813;BME280;9534;51.140;6.296;2023-04-02T09:51:30;100955.59;;;5.57;100.00
18813;BME280;9534;51.140;6.296;2023-04-02T09:55:35;100961.19;;;5.96;100.00
18813;BME280;9534;51.140;6.296;2023-04-02T09:59:39;100971.88;;;5.89;100.00
18813;BME280;9534;51.140;6.296;2023-04-02T10:03:43;100987.63;;;5.86;100.00
18813;BME280;9534;51.140;6.296;2023-04-02T10:07:49;100986.09;;;6.15;100.00
18813;BME280;9534;51.140;6.296;2023-04-02T10:11:54;100994.59;;;6.04;100.00
18813;BME280;9534;51.140;6.296;2023-04-02T10:16:00;101002.53;;;6.21;100.00
18813;BME280;9534;51.140;6.296;2023-04-02T10:20:14;101006.97;;;6.61;100.00
18813;BME280;9534;51.140;6.296;2023-04-02T10:24:25;101016.38;;;6.50;100.00
18813;BME280;9534;51.140;6.296;2023-04-02T10:28:41;101026.97;;;6.21;100.00
18813;BME280;9534;51.140;6.296;2023-04-02T10:32:50;101024.81;;;6.17;100.00
18813;BME280;9534;51.140;6.296;2023-04-02T10:37:00;101045.16;;;6.29;100.00
18813;BME280;9534;51.140;6.296;2023-04-02T10:41:24;101055.81;;;6.46;100.00
18813;BME280;9534;51.140;6.296;2023-04-02T10:45:34;101064.16;;;6.37;100.00
18813;BME280;9534;51.140;6.296;2023-04-02T10:49:49;101066.00;;;6.44;100.00
18813;BME280;9534;51.140;6.296;2023-04-02T10:54:01;101068.72;;;6.52;100.00
18813;BME280;9534;51.140;6.296;2023-04-02T10:58:17;101070.41;;;6.53;100.00
18813;BME280;9534;51.140;6.296;2023-04-02T11:02:33;101069.03;;;6.65;100.00
18813;BME280;9534;51.140;6.296;2023-04-02T11:06:42;101073.63;;;6.57;100.00
18813;BME280;9534;51.140;6.296;2023-04-02T11:10:53;101082.31;;;6.44;100.00
18813;BME280;9534;51.140;6.296;2023-04-02T11:14:59;101090.38;;;6.84;100.00
18813;BME280;9534;51.140;6.296;2023-04-02T11:19:21;101079.22;;;6.63;100.00
18813;BME280;9534;51.140;6.296;2023-04-02T11:23:33;101094.53;;;6.48;100.00
18813;BME280;9534;51.140;6.296;2023-04-02T11:27:36;101090.47;;;6.52;100.00
18813;BME280;9534;51.140;6.296;2023-04-02T11:31:42;101096.94;;;6.43;100.00
18813;BME280;9534;51.140;6.296;2023-04-02T11:35:46;101103.38;;;6.58;100.00
18813;BME280;9534;51.140;6.296;2023-04-02T11:39:51;101113.56;;;6.48;100.00
18813;BME280;9534;51.140;6.296;2023-04-02T11:44:01;101129.88;;;6.48;100.00
18813;BME280;9534;51.140;6.296;2023-04-02T11:48:27;101128.19;;;6.55;100.00
18813;BME280;9534;51.140;6.296;2023-04-02T11:52:33;101143.94;;;6.68;100.00
18813;BME280;9534;51.140;6.296;2023-04-02T11:56:41;101142.59;;;6.64;100.00
18813;BME280;9534;51.140;6.296;2023-04-02T12:00:59;101150.59;;;6.65;100.00
18813;BME280;9534;51.140;6.296;2023-04-02T12:05:15;101164.66;;;6.85;100.00
18813;BME280;9534;51.140;6.296;2023-04-02T12:09:23;101166.03;;;6.73;100.00
18813;BME280;9534;51.140;6.296;2023-04-02T12:13:46;101173.69;;;6.85;100.00
18813;BME280;9534;51.140;6.296;2023-04-02T12:17:50;101168.59;;;6.82;100.00
18813;BME280;9534;51.140;6.296;2023-04-02T12:21:57;101182.53;;;6.87;100.00
18813;BME280;9534;51.140;6.296;2023-04-02T12:26:03;101177.19;;;7.10;100.00
18813;BME280;9534;51.140;6.296;2023-04-02T12:30:13;101181.09;;;6.99;100.00
18813;BME280;9534;51.140;6.296;2023-04-02T12:34:20;101182.72;;;7.24;100.00
18813;BME280;9534;51.140;6.296;2023-04-02T12:38:27;101191.59;;;7.18;100.00
18813;BME280;9534;51.140;6.296;2023-04-02T12:42:33;101197.38;;;7.15;100.00
18813;BME280;9534;51.140;6.296;2023-04-02T12:46:38;101193.91;;;7.37;100.00
18813;BME280;9534;51.140;6.296;2023-04-02T12:50:43;101204.56;;;7.00;100.00
18813;BME280;9534;51.140;6.296;2023-04-02T12:54:49;101203.50;;;7.25;100.00
18813;BME280;9534;51.140;6.296;2023-04-02T12:58:55;101213.31;;;7.34;100.00
18813;BME280;9534;51.140;6.296;2023-04-02T13:03:06;101219.50;;;7.12;100.00
18813;BME280;9534;51.140;6.296;2023-04-02T13:07:16;101228.34;;;7.14;100.00
18813;BME280;9534;51.140;6.296;2023-04-02T13:11:21;101230.00;;;7.31;100.00
18813;BME280;9534;51.140;6.296;2023-04-02T13:15:28;101223.56;;;7.24;100.00
18813;BME280;9534;51.140;6.296;2023-04-02T13:19:33;101232.72;;;7.31;100.00
18813;BME280;9534;51.140;6.296;2023-04-02T13:23:36;101237.97;;;7.40;100.00
18813;BME280;9534;51.140;6.296;2023-04-02T13:27:40;101236.88;;;7.11;100.00
18813;BME280;9534;51.140;6.296;2023-04-02T13:31:44;101243.53;;;7.55;100.00
18813;BME280;9534;51.140;6.296;2023-04-02T13:35:47;101249.41;;;7.36;100.00
18813;BME280;9534;51.140;6.296;2023-04-02T13:39:50;101248.94;;;7.17;100.00
18813;BME280;9534;51.140;6.296;2023-04-02T13:43:57;101263.38;;;7.25;100.00
18813;BME280;9534;51.140;6.296;2023-04-02T13:48:01;101263.69;;;7.38;100.00
18813;BME280;9534;51.140;6.296;2023-04-02T13:52:10;101268.81;;;7.33;100.00
18813;BME280;9534;51.140;6.296;2023-04-02T13:56:15;101257.88;;;7.41;100.00
18813;BME280;9534;51.140;6.296;2023-04-02T14:00:22;101260.94;;;7.46;100.00
18813;BME280;9534;51.140;6.296;2023-04-02T14:04:28;101272.19;;;7.43;100.00
18813;BME280;9534;51.140;6.296;2023-04-02T14:08:42;101276.38;;;7.53;100.00
18813;BME280;9534;51.140;6.296;2023-04-02T14:13:00;101289.88;;;7.47;100.00
18813;BME280;9534;51.140;6.296;2023-04-02T14:17:14;101287.84;;;7.33;100.00
18813;BME280;9534;51.140;6.296;2023-04-02T14:21:27;101293.25;;;7.57;100.00
18813;BME280;9534;51.140;6.296;2023-04-02T14:25:38;101301.09;;;7.44;100.00
18813;BME280;9534;51.140;6.296;2023-04-02T14:29:47;101307.59;;;7.35;100.00
18813;BME280;9534;51.140;6.296;2023-04-02T14:34:01;101311.81;;;7.37;100.00
18813;BME280;9534;51.140;6.296;2023-04-02T14:38:12;101317.81;;;7.17;100.00
18813;BME280;9534;51.140;6.296;2023-04-02T14:42:21;101326.31;;;7.14;100.00
18813;BME280;9534;51.140;6.296;2023-04-02T14:46:30;101325.47;;;7.30;100.00
18813;BME280;9534;51.140;6.296;2023-04-02T14:50:40;101323.78;;;7.13;100.00
18813;BME280;9534;51.140;6.296;2023-04-02T14:54:48;101331.78;;;7.06;100.00
18813;BME280;9534;51.140;6.296;2023-04-02T14:59:00;101329.38;;;7.27;100.00
18813;BME280;9534;51.140;6.296;2023-04-02T15:03:11;101341.97;;;7.04;100.00
18813;BME280;9534;51.140;6.296;2023-04-02T15:07:22;101348.09;;;7.14;100.00
18813;BME280;9534;51.140;6.296;2023-04-02T15:11:29;101341.63;;;7.07;100.00
18813;BME280;9534;51.140;6.296;2023-04-02T15:15:40;101344.38;;;6.83;100.00
18813;BME280;9534;51.140;6.296;2023-04-02T15:19:45;101351.84;;;7.13;100.00
18813;BME280;9534;51.140;6.296;2023-04-02T15:23:54;101342.13;;;9.76;100.00
18813;BME280;9534;51.140;6.296;2023-04-02T15:28:18;101341.16;;;9.03;100.00
18813;BME280;9534;51.140;6.296;2023-04-02T15:32:29;101358.09;;;8.08;100.00
18813;BME280;9534;51.140;6.296;2023-04-02T15:36:51;101356.63;;;7.89;100.00
18813;BME280;9534;51.140;6.296;2023-04-02T15:41:01;101354.16;;;7.72;100.00
18813;BME280;9534;51.140;6.296;2023-04-02T15:45:18;101365.22;;;9.22;100.00
18813;BME280;9534;51.140;6.296;2023-04-02T15:49:38;101371.69;;;9.58;100.00
18813;BME280;9534;51.140;6.296;2023-04-02T15:53:51;101380.97;;;9.86;100.00
18813;BME280;9534;51.140;6.296;2023-04-02T15:58:16;101375.97;;;10.83;100.00
18813;BME280;9534;51.140;6.296;2023-04-02T16:02:36;101372.38;;;10.82;100.00
18813;BME280;9534;51.140;6.296;2023-04-02T16:06:53;101384.16;;;9.01;100.00
18813;BME280;9534;51.140;6.296;2023-04-02T16:10:58;101383.59;;;9.65;100.00
18813;BME280;9534;51.140;6.296;2023-04-02T16:15:13;101386.94;;;8.93;100.00
18813;BME280;9534;51.140;6.296;2023-04-02T16:19:23;101388.59;;;9.02;100.00
18813;BME280;9534;51.140;6.296;2023-04-02T16:23:32;101392.38;;;8.49;100.00
18813;BME280;9534;51.140;6.296;2023-04-02T16:27:38;101399.59;;;8.26;100.00
18813;BME280;9534;51.140;6.296;2023-04-02T16:31:50;101405.44;;;8.15;100.00
18813;BME280;9534;51.140;6.296;2023-04-02T16:36:03;101408.88;;;8.01;100.00
18813;BME280;9534;51.140;6.296;2023-04-02T16:40:16;101407.41;;;7.90;100.00
18813;BME280;9534;51.140;6.296;2023-04-02T16:44:30;101416.78;;;8.26;100.00
18813;BME280;9534;51.140;6.296;2023-04-02T16:48:45;101427.59;;;8.12;100.00
18813;BME280;9534;51.140;6.296;2023-04-02T16:52:57;101428.69;;;7.87;100.00
18813;BME280;9534;51.140;6.296;2023-04-02T16:57:15;101433.84;;;7.74;100.00
18813;BME280;9534;51.140;6.296;2023-04-02T17:01:25;101443.88;;;7.41;100.00
18813;BME280;9534;51.140;6.296;2023-04-02T17:05:33;101442.03;;;7.58;100.00
18813;BME280;9534;51.140;6.296;2023-04-02T17:09:45;101447.88;;;8.17;100.00
18813;BME280;9534;51.140;6.296;2023-04-02T17:13:56;101456.19;;;8.24;100.00
18813;BME280;9534;51.140;6.296;2023-04-02T17:18:12;101464.50;;;7.68;100.00
18813;BME280;9534;51.140;6.296;2023-04-02T17:22:21;101473.03;;;8.19;100.00
18813;BME280;9534;51.140;6.296;2023-04-02T17:26:27;101475.31;;;8.00;100.00
18813;BME280;9534;51.140;6.296;2023-04-02T17:30:36;101478.03;;;8.00;100.00
18813;BME280;9534;51.140;6.296;2023-04-02T17:34:39;101490.19;;;7.49;100.00
18813;BME280;9534;51.140;6.296;2023-04-02T17:38:51;101505.13;;;7.14;100.00
18813;BME280;9534;51.140;6.296;2023-04-02T17:43:04;101506.94;;;6.89;100.00
18813;BME280;9534;51.140;6.296;2023-04-02T17:47:18;101505.91;;;6.90;100.00
18813;BME280;9534;51.140;6.296;2023-04-02T17:51:30;101516.97;;;6.89;100.00
18813;BME280;9534;51.140;6.296;2023-04-02T17:55:44;101523.94;;;6.83;100.00
18813;BME280;9534;51.140;6.296;2023-04-02T17:59:57;101524.19;;;6.64;100.00
18813;BME280;9534;51.140;6.296;2023-04-02T18:04:20;101536.03;;;6.55;100.00
18813;BME280;9534;51.140;6.296;2023-04-02T18:08:37;101542.63;;;6.53;100.00
18813;BME280;9534;51.140;6.296;2023-04-02T18:12:52;101551.34;;;6.56;100.00
18813;BME280;9534;51.140;6.296;2023-04-02T18:17:04;101553.69;;;6.51;100.00
18813;BME280;9534;51.140;6.296;2023-04-02T18:21:18;101562.22;;;6.56;100.00
18813;BME280;9534;51.140;6.296;2023-04-02T18:25:41;101560.66;;;6.54;100.00
18813;BME280;9534;51.140;6.296;2023-04-02T18:29:55;101579.56;;;6.55;100.00
18813;BME280;9534;51.140;6.296;2023-04-02T18:38:41;101589.03;;;6.51;100.00
18813;BME280;9534;51.140;6.296;2023-04-02T18:42:56;101594.47;;;6.51;100.00
18813;BME280;9534;51.140;6.296;2023-04-02T18:47:07;101597.72;;;6.55;100.00
18813;BME280;9534;51.140;6.296;2023-04-02T18:51:19;101602.59;;;6.43;100.00
18813;BME280;9534;51.140;6.296;2023-04-02T18:55:27;101613.25;;;6.37;100.00
18813;BME280;9534;51.140;6.296;2023-04-02T18:59:34;101622.69;;;6.25;100.00
18813;BME280;9534;51.140;6.296;2023-04-02T19:03:44;101625.78;;;6.13;100.00
18813;BME280;9534;51.140;6.296;2023-04-02T19:07:58;101627.19;;;6.16;100.00
18813;BME280;9534;51.140;6.296;2023-04-02T19:12:14;101640.72;;;6.09;100.00
18813;BME280;9534;51.140;6.296;2023-04-02T19:16:42;101644.59;;;6.06;100.00
18813;BME280;9534;51.140;6.296;2023-04-02T19:21:07;101650.88;;;6.07;100.00
18813;BME280;9534;51.140;6.296;2023-04-02T19:25:30;101656.59;;;5.96;100.00
18813;BME280;9534;51.140;6.296;2023-04-02T19:29:48;101670.50;;;5.66;100.00
18813;BME280;9534;51.140;6.296;2023-04-02T19:33:58;101672.34;;;5.48;100.00
18813;BME280;9534;51.140;6.296;2023-04-02T19:38:12;101669.53;;;5.40;100.00
18813;BME280;9534;51.140;6.296;2023-04-02T19:42:29;101679.56;;;5.30;100.00
18813;BME280;9534;51.140;6.296;2023-04-02T19:46:36;101683.59;;;4.99;100.00
18813;BME280;9534;51.140;6.296;2023-04-02T19:50:40;101685.50;;;4.89;100.00
18813;BME280;9534;51.140;6.296;2023-04-02T19:54:45;101696.94;;;4.83;100.00
18813;BME280;9534;51.140;6.296;2023-04-02T19:58:49;101702.88;;;4.60;100.00
18813;BME280;9534;51.140;6.296;2023-04-02T20:02:52;101714.16;;;4.46;100.00
18813;BME280;9534;51.140;6.296;2023-04-02T20:06:55;101712.44;;;4.45;100.00
18813;BME280;9534;51.140;6.296;2023-04-02T20:11:01;101717.31;;;4.32;100.00
18813;BME280;9534;51.140;6.296;2023-04-02T20:15:06;101716.47;;;4.31;100.00
18813;BME280;9534;51.140;6.296;2023-04-02T20:19:09;101719.03;;;4.23;100.00
18813;BME280;9534;51.140;6.296;2023-04-02T20:23:16;101730.13;;;4.11;100.00
18813;BME280;9534;51.140;6.296;2023-04-02T20:27:20;101722.88;;;3.92;100.00
18813;BME280;9534;51.140;6.296;2023-04-02T20:31:24;101730.28;;;3.90;100.00
18813;BME280;9534;51.140;6.296;2023-04-02T20:35:28;101724.13;;;3.69;100.00
18813;BME280;9534;51.140;6.296;2023-04-02T20:39:39;101723.13;;;3.70;100.00
18813;BME280;9534;51.140;6.296;2023-04-02T20:43:43;101739.38;;;3.70;100.00
18813;BME280;9534;51.140;6.296;2023-04-02T20:47:47;101735.13;;;3.77;100.00
18813;BME280;9534;51.140;6.296;2023-04-02T20:51:51;101736.53;;;3.72;100.00
18813;BME280;9534;51.140;6.296;2023-04-02T20:56:01;101745.03;;;3.49;100.00
18813;BME280;9534;51.140;6.296;2023-04-02T21:00:07;101745.41;;;3.35;100.00
18813;BME280;9534;51.140;6.296;2023-04-02T21:04:13;101760.84;;;3.44;100.00
18813;BME280;9534;51.140;6.296;2023-04-02T21:08:16;101766.34;;;3.33;100.00
18813;BME280;9534;51.140;6.296;2023-04-02T21:12:22;101778.34;;;3.10;100.00
18813;BME280;9534;51.140;6.296;2023-04-02T21:16:31;101781.47;;;2.85;100.00
18813;BME280;9534;51.140;6.296;2023-04-02T21:20:35;101791.56;;;2.83;100.00
18813;BME280;9534;51.140;6.296;2023-04-02T21:24:38;101785.63;;;2.89;100.00
18813;BME280;9534;51.140;6.296;2023-04-02T21:28:44;101784.97;;;2.76;100.00
18813;BME280;9534;51.140;6.296;2023-04-02T21:32:49;101793.44;;;2.62;100.00
18813;BME280;9534;51.140;6.296;2023-04-02T21:36:54;101800.41;;;2.44;100.00
18813;BME280;9534;51.140;6.296;2023-04-02T21:41:08;101807.81;;;2.31;100.00
18813;BME280;9534;51.140;6.296;2023-04-02T21:45:11;101817.94;;;2.18;100.00
18813;BME280;9534;51.140;6.296;2023-04-02T21:49:19;101823.53;;;1.95;100.00
18813;BME280;9534;51.140;6.296;2023-04-02T21:53:24;101819.72;;;1.86;100.00
18813;BME280;9534;51.140;6.296;2023-04-02T21:57:28;101822.22;;;1.78;100.00
18813;BME280;9534;51.140;6.296;2023-04-02T22:01:33;101819.91;;;1.74;100.00
18813;BME280;9534;51.140;6.296;2023-04-02T22:05:38;101827.66;;;1.67;100.00